Time;durP1;ratioP1;P1;durP2;ratioP2;P2;SDS_P1;SDS_P2;PMS_P1;PMS_P2;Temp;Humidity;BMP_temperature;BMP_pressure;BME280_temperature;BME280_humidity;BME280_pressure;Samples;Min_cycle;Max_cycle;Signal;HPM_P1;HPM_P2
2022/02/26 00:00:45;;;;;;;3.42;1.23;;;;;;;0.91;82.59;101319.69;5049127;28;20524;-69
2022/02/26 00:03:11;;;;;;;3.90;1.45;;;;;;;0.80;82.57;101311.53;5067105;28;20052;-70
2022/02/26 00:05:37;;;;;;;1.88;1.13;;;;;;;0.81;82.62;101330.31;5066681;28;20488;-69
2022/02/26 00:08:02;;;;;;;1.10;0.90;;;;;;;0.69;82.50;101313.59;5066837;28;20021;-70
2022/02/26 00:10:28;;;;;;;4.40;1.33;;;;;;;0.79;82.28;101350.69;5066856;28;20032;-70
2022/02/26 00:12:54;;;;;;;4.63;1.38;;;;;;;0.74;81.98;101341.91;5048703;28;20021;-70
2022/02/26 00:15:20;;;;;;;3.90;1.30;;;;;;;0.81;81.93;101359.31;5066567;28;20028;-70
2022/02/26 00:17:46;;;;;;;3.38;1.20;;;;;;;0.79;82.00;101365.13;5066747;28;20025;-70
2022/02/26 00:20:12;;;;;;;3.40;1.20;;;;;;;0.78;82.13;101360.84;5066354;28;20025;-70
2022/02/26 00:22:37;;;;;;;3.92;1.13;;;;;;;0.73;81.96;101363.19;5066614;28;20021;-70
2022/02/26 00:25:03;;;;;;;2.47;1.30;;;;;;;0.69;81.84;101363.81;5066488;28;20047;-71
2022/02/26 00:27:29;;;;;;;2.83;1.30;;;;;;;0.72;81.75;101381.84;5066696;28;20096;-69
2022/02/26 00:29:54;;;;;;;6.22;1.42;;;;;;;0.71;82.03;101381.00;5066428;28;20021;-70
2022/02/26 00:32:19;;;;;;;3.50;1.35;;;;;;;0.73;81.59;101383.63;5066436;28;20388;-70
2022/02/26 00:34:45;;;;;;;10.32;1.70;;;;;;;0.70;81.62;101389.44;5066112;28;20024;-70
2022/02/26 00:37:10;;;;;;;2.55;1.02;;;;;;;0.66;81.63;101390.13;5066092;28;20053;-70
2022/02/26 00:39:35;;;;;;;5.65;1.50;;;;;;;0.68;81.57;101398.75;5048110;28;20028;-71
2022/02/26 00:42:01;;;;;;;3.75;0.85;;;;;;;0.58;81.75;101399.09;5066074;28;20040;-70
2022/02/26 00:44:26;;;;;;;2.47;1.15;;;;;;;0.63;81.61;101410.41;5066217;28;20031;-69
2022/02/26 00:46:52;;;;;;;2.40;1.00;;;;;;;0.62;81.62;101418.91;5066086;28;20021;-70
2022/02/26 00:52:01;;;;;;;2.55;1.20;;;;;;;0.60;81.59;101429.06;5066036;28;20227;-72
2022/02/26 00:54:27;;;;;;;2.92;1.27;;;;;;;0.59;81.68;101429.81;5066374;28;20028;-70
2022/02/26 00:56:52;;;;;;;4.65;1.33;;;;;;;0.59;81.70;101436.66;5066170;28;20118;-71
2022/02/26 00:59:17;;;;;;;6.72;1.42;;;;;;;0.58;81.89;101434.88;5065480;28;20025;-70
2022/02/26 01:01:43;;;;;;;3.60;1.38;;;;;;;0.59;81.82;101439.19;5066094;28;20025;-70
2022/02/26 01:04:09;;;;;;;1.63;1.30;;;;;;;0.59;81.69;101444.31;5065884;28;20086;-70
2022/02/26 01:06:35;;;;;;;2.03;1.33;;;;;;;0.55;81.48;101437.28;5065647;28;20035;-72
2022/02/26 01:09:03;;;;;;;1.77;1.08;;;;;;;0.59;81.49;101450.28;5065848;28;20021;-70
2022/02/26 01:11:29;;;;;;;4.80;1.10;;;;;;;0.56;81.42;101447.56;5065698;28;20032;-70
2022/02/26 01:13:54;;;;;;;5.28;1.40;;;;;;;0.59;81.24;101459.66;5047954;28;20020;-70
2022/02/26 01:16:19;;;;;;;2.95;1.40;;;;;;;0.60;81.35;101466.50;5065550;28;20024;-70
2022/02/26 01:18:45;;;;;;;2.88;1.23;;;;;;;0.55;81.60;101460.28;5047974;28;20493;-70
2022/02/26 01:21:10;;;;;;;6.75;1.30;;;;;;;0.55;81.61;101473.03;5065431;28;20024;-70
2022/02/26 01:23:36;;;;;;;3.03;1.38;;;;;;;0.58;81.64;101484.31;5047765;28;20544;-70
2022/02/26 01:26:01;;;;;;;3.40;0.98;;;;;;;0.54;81.65;101492.63;5065618;28;20476;-70
2022/02/26 01:28:26;;;;;;;3.78;1.27;;;;;;;0.54;81.56;101501.97;5065738;28;20081;-71
2022/02/26 01:30:52;;;;;;;3.60;1.50;;;;;;;0.54;81.68;101502.84;5065695;28;20017;-70
2022/02/26 01:33:17;;;;;;;2.08;1.00;;;;;;;0.51;81.45;101502.72;5065795;28;20082;-69
2022/02/26 01:35:42;;;;;;;4.72;1.45;;;;;;;0.54;81.49;101514.75;5065855;28;20076;-70
2022/02/26 01:38:08;;;;;;;5.70;1.27;;;;;;;0.48;81.51;101518.75;5065684;28;20298;-70
2022/02/26 01:40:33;;;;;;;6.03;1.45;;;;;;;0.51;81.49;101520.59;5065906;28;20492;-69
2022/02/26 01:42:59;;;;;;;2.63;1.20;;;;;;;0.50;81.62;101529.03;5065668;28;20025;-70
2022/02/26 01:45:26;;;;;;;2.65;1.30;;;;;;;0.48;81.41;101531.50;5065200;28;20048;-69
2022/02/26 01:47:52;;;;;;;3.92;1.38;;;;;;;0.44;81.57;101531.28;5065472;28;20021;-71
2022/02/26 01:50:18;;;;;;;5.20;1.27;;;;;;;0.39;81.33;101522.50;5064732;28;20043;-69
2022/02/26 01:52:43;;;;;;;8.88;1.40;;;;;;;0.46;81.66;101545.88;5065441;28;20033;-69
2022/02/26 01:55:09;;;;;;;3.95;1.10;;;;;;;0.40;81.39;101537.91;5065272;28;20023;-70
2022/02/26 01:57:36;;;;;;;1.50;0.90;;;;;;;0.43;80.52;101545.72;5065084;28;20047;-70
2022/02/26 02:00:04;;;;;;;2.97;1.02;;;;;;;0.44;80.41;101550.06;5064869;28;20044;-70
2022/02/26 02:02:29;;;;;;;3.70;1.20;;;;;;;0.42;80.07;101546.53;5064870;28;20024;-69
2022/02/26 02:04:55;;;;;;;5.15;1.60;;;;;;;0.45;79.84;101559.47;5064484;28;20078;-70
2022/02/26 02:07:20;;;;;;;6.95;1.23;;;;;;;0.46;79.99;101561.22;5064663;28;20377;-71
2022/02/26 02:09:46;;;;;;;2.80;1.50;;;;;;;0.44;79.91;101552.59;5063561;28;20025;-71
2022/02/26 02:12:11;;;;;;;3.20;1.73;;;;;;;0.48;79.50;101557.06;5064657;28;20021;-70
2022/02/26 02:14:37;;;;;;;1.77;1.10;;;;;;;0.46;79.74;101561.22;5064418;28;20052;-70
2022/02/26 02:17:03;;;;;;;1.83;0.98;;;;;;;0.35;80.06;101553.00;5064577;28;20029;-70
2022/02/26 02:19:28;;;;;;;1.90;0.98;;;;;;;0.42;80.04;101578.84;5064426;28;20052;-70
2022/02/26 02:21:54;;;;;;;2.67;1.10;;;;;;;0.39;79.55;101584.69;5064131;28;20382;-69
2022/02/26 02:24:19;;;;;;;4.15;1.30;;;;;;;0.41;79.51;101585.66;5064501;28;20589;-69
2022/02/26 02:26:45;;;;;;;2.30;1.30;;;;;;;0.38;80.01;101585.50;5064497;28;20063;-69
2022/02/26 02:29:11;;;;;;;5.13;1.50;;;;;;;0.36;79.80;101590.53;5064489;28;20028;-69
2022/02/26 02:31:37;;;;;;;2.55;1.63;;;;;;;0.35;79.51;101595.56;5062706;28;20021;-70
2022/02/26 02:34:03;;;;;;;4.43;1.00;;;;;;;0.27;79.41;101578.94;5064250;28;20024;-69
2022/02/26 02:36:28;;;;;;;1.98;1.00;;;;;;;0.29;79.01;101600.34;5063656;28;20052;-69
2022/02/26 02:38:55;;;;;;;3.35;1.40;;;;;;;0.26;78.42;101587.41;5064175;28;20103;-68
2022/02/26 02:41:20;;;;;;;2.15;0.80;;;;;;;0.26;78.76;101598.50;5063965;28;20037;-69
2022/02/26 02:43:46;;;;;;;1.00;0.90;;;;;;;0.22;78.97;101597.44;5063988;28;20025;-69
2022/02/26 02:46:12;;;;;;;3.22;1.13;;;;;;;0.22;78.04;101605.09;5064009;28;20104;-70
2022/02/26 02:48:38;;;;;;;2.22;1.15;;;;;;;0.18;77.93;101613.41;5064085;28;20402;-70
2022/02/26 02:51:05;;;;;;;3.22;2.10;;;;;;;0.14;77.92;101614.06;5063675;28;20040;-70
2022/02/26 02:53:30;;;;;;;3.30;1.10;;;;;;;0.10;78.05;101624.88;5063972;28;20235;-70
2022/02/26 02:55:56;;;;;;;2.42;1.20;;;;;;;0.08;78.21;101629.06;5063749;28;20048;-70
2022/02/26 02:58:26;;;;;;;4.72;1.48;;;;;;;0.05;78.15;101626.34;5063871;28;20076;-70
2022/02/26 03:00:53;;;;;;;3.13;1.38;;;;;;;-0.02;77.76;101627.66;5063780;28;20305;-70
2022/02/26 03:03:18;;;;;;;4.93;1.80;;;;;;;-0.01;78.20;101637.06;5063807;28;20144;-70
2022/02/26 03:05:45;;;;;;;2.72;1.05;;;;;;;-0.11;78.34;101627.16;5063498;28;20033;-70
2022/02/26 03:08:10;;;;;;;4.47;1.20;;;;;;;-0.08;78.43;101645.19;5063973;28;20081;-69
2022/02/26 03:10:36;;;;;;;3.38;1.90;;;;;;;-0.14;78.44;101633.84;5063682;28;20048;-70
2022/02/26 03:13:02;;;;;;;2.15;1.15;;;;;;;-0.15;78.55;101652.53;5063458;28;20028;-69
2022/02/26 03:15:27;;;;;;;1.65;0.98;;;;;;;-0.19;78.54;101655.69;5063382;28;20029;-69
2022/02/26 03:17:52;;;;;;;3.85;1.30;;;;;;;-0.16;78.60;101662.66;5063670;28;20388;-69
2022/02/26 03:20:19;;;;;;;3.13;1.15;;;;;;;-0.19;78.68;101665.03;5062899;28;20031;-69
2022/02/26 03:22:44;;;;;;;2.60;1.20;;;;;;;-0.21;78.07;101667.50;5063523;28;20028;-69
2022/02/26 03:25:10;;;;;;;3.50;1.30;;;;;;;-0.20;78.23;101671.78;5063613;28;20047;-69
2022/02/26 03:27:36;;;;;;;2.20;1.15;;;;;;;-0.20;78.63;101681.13;5063462;28;20025;-70
2022/02/26 03:30:03;;;;;;;3.03;1.30;;;;;;;-0.20;78.71;101687.09;5045491;28;20016;-70
2022/02/26 03:32:29;;;;;;;3.47;1.27;;;;;;;-0.20;78.91;101691.31;5063208;28;20028;-70
2022/02/26 03:34:54;;;;;;;4.53;1.70;;;;;;;-0.23;78.60;101692.03;5063256;28;20032;-69
2022/02/26 03:37:20;;;;;;;2.25;1.30;;;;;;;-0.21;79.05;101698.13;5044894;28;20048;-69
2022/02/26 03:39:45;;;;;;;6.25;1.30;;;;;;;-0.20;79.21;101704.97;5063228;28;20040;-69
2022/02/26 03:42:11;;;;;;;5.55;1.10;;;;;;;-0.22;79.53;101710.81;5063042;28;20017;-70
2022/02/26 03:44:38;;;;;;;5.78;1.83;;;;;;;-0.27;79.74;101718.16;5045234;28;20473;-69
2022/02/26 03:47:04;;;;;;;3.05;1.25;;;;;;;-0.28;80.02;101722.41;5062954;28;20215;-70
2022/02/26 03:49:30;;;;;;;3.30;1.40;;;;;;;-0.31;80.01;101726.44;5045236;28;20027;-70
2022/02/26 03:51:56;;;;;;;1.27;1.00;;;;;;;-0.33;80.21;101739.13;5062663;28;20112;-70
2022/02/26 03:54:21;;;;;;;4.65;1.33;;;;;;;-0.37;80.47;101732.09;5061889;28;20025;-70
2022/02/26 03:56:48;;;;;;;1.25;1.00;;;;;;;-0.39;80.65;101729.44;5063232;28;20032;-70
2022/02/26 03:59:13;;;;;;;3.22;1.23;;;;;;;-0.46;80.66;101736.66;5063069;28;20036;-71
2022/02/26 04:01:38;;;;;;;3.08;1.48;;;;;;;-0.44;80.78;101735.94;5062798;28;20021;-70
2022/02/26 04:04:04;;;;;;;6.13;1.60;;;;;;;-0.47;80.94;101739.97;5063213;28;20039;-71
2022/02/26 04:06:29;;;;;;;5.95;1.77;;;;;;;-0.45;81.01;101748.63;5062778;28;20516;-69
2022/02/26 04:08:55;;;;;;;12.50;1.83;;;;;;;-0.46;81.09;101751.97;5063082;28;20422;-70
2022/02/26 04:11:20;;;;;;;3.40;1.52;;;;;;;-0.55;81.11;101755.75;5063012;28;20468;-69
2022/02/26 04:13:46;;;;;;;4.80;1.15;;;;;;;-0.47;80.81;101770.59;5062793;28;20100;-69
2022/02/26 04:16:11;;;;;;;5.15;1.13;;;;;;;-0.48;81.16;101773.97;5044901;28;20029;-70
2022/02/26 04:18:37;;;;;;;5.57;1.45;;;;;;;-0.54;81.32;101766.81;5044783;28;20024;-69
2022/02/26 04:21:02;;;;;;;3.78;1.33;;;;;;;-0.56;81.61;101771.81;5044833;28;20039;-70
2022/02/26 04:23:27;;;;;;;3.38;1.27;;;;;;;-0.55;81.77;101783.81;5062946;28;20516;-69
2022/02/26 04:25:53;;;;;;;6.65;1.52;;;;;;;-0.57;81.82;101785.38;5044744;28;20025;-70
2022/02/26 04:28:18;;;;;;;2.38;1.10;;;;;;;-0.60;81.85;101787.75;5062886;28;20025;-70
2022/02/26 04:30:45;;;;;;;4.40;1.10;;;;;;;-0.64;82.07;101798.56;5062595;28;20488;-70
2022/02/26 04:33:11;;;;;;;3.65;1.27;;;;;;;-0.72;81.95;101794.66;5064019;28;20053;-70
2022/02/26 04:35:37;;;;;;;6.68;1.83;;;;;;;-0.69;82.02;101812.69;5066295;28;20021;-70
2022/02/26 04:38:03;;;;;;;3.55;1.05;;;;;;;-0.78;82.11;101800.25;5066583;28;20029;-69
2022/02/26 04:40:28;;;;;;;7.78;1.50;;;;;;;-0.77;82.14;101817.34;5066294;28;20036;-69
2022/02/26 04:42:54;;;;;;;2.70;1.33;;;;;;;-0.81;82.22;101816.25;5066342;28;20394;-70
2022/02/26 04:45:19;;;;;;;4.35;1.58;;;;;;;-0.90;82.30;101815.69;5066346;28;20051;-70
2022/02/26 04:47:45;;;;;;;4.75;1.63;;;;;;;-0.90;82.46;101820.78;5066247;28;20056;-69
2022/02/26 04:50:14;;;;;;;2.63;1.50;;;;;;;-0.86;82.46;101839.72;5066008;28;20025;-69
2022/02/26 04:52:41;;;;;;;5.57;1.73;;;;;;;-0.87;82.74;101846.47;5066163;28;20032;-69
2022/02/26 04:55:07;;;;;;;2.50;1.50;;;;;;;-0.92;82.65;101842.75;5066096;28;20025;-69
2022/02/26 04:57:33;;;;;;;4.10;1.33;;;;;;;-0.92;82.77;101850.41;5065844;28;20035;-69
2022/02/26 04:59:58;;;;;;;5.50;1.73;;;;;;;-0.97;82.83;101854.34;5066090;28;20381;-70
2022/02/26 05:02:24;;;;;;;4.65;1.88;;;;;;;-0.95;82.78;101852.78;5065879;28;20025;-69
2022/02/26 05:04:49;;;;;;;3.75;1.67;;;;;;;-0.97;82.69;101854.34;5065943;28;20036;-70
2022/02/26 05:07:15;;;;;;;4.47;1.40;;;;;;;-0.97;82.68;101870.53;5065750;28;20447;-70
2022/02/26 05:09:44;;;;;;;4.25;1.58;;;;;;;-0.97;82.89;101883.28;5065956;28;20495;-70
2022/02/26 05:12:09;;;;;;;3.88;1.52;;;;;;;-0.93;82.92;101892.00;5065815;28;20025;-71
2022/02/26 05:14:35;;;;;;;5.00;1.50;;;;;;;-0.94;82.93;101888.56;5065917;28;20112;-70
2022/02/26 05:17:00;;;;;;;2.17;1.13;;;;;;;-0.93;83.00;101898.00;5047692;28;20028;-70
2022/02/26 05:19:26;;;;;;;5.13;1.42;;;;;;;-0.91;82.89;101905.75;5065637;28;20052;-70
2022/02/26 05:21:51;;;;;;;5.57;1.52;;;;;;;-0.88;83.17;101911.03;5065283;28;20044;-69
2022/02/26 05:24:17;;;;;;;8.77;2.10;;;;;;;-0.87;82.95;101917.88;5047794;28;20113;-70
2022/02/26 05:26:42;;;;;;;5.45;2.13;;;;;;;-0.85;82.71;101921.41;5065464;28;20135;-70
2022/02/26 05:29:08;;;;;;;3.92;1.40;;;;;;;-0.83;82.76;101937.69;5065564;28;20044;-70
2022/02/26 05:31:33;;;;;;;3.00;1.13;;;;;;;-0.83;82.65;101940.22;5065428;28;20060;-70
2022/02/26 05:33:59;;;;;;;5.45;1.48;;;;;;;-0.88;82.80;101933.97;5047428;28;20032;-70
2022/02/26 05:36:24;;;;;;;3.90;1.60;;;;;;;-0.85;82.72;101941.81;5065065;28;20040;-70
2022/02/26 05:38:50;;;;;;;2.30;1.13;;;;;;;-0.88;82.70;101941.63;5065270;28;20446;-70
2022/02/26 05:41:15;;;;;;;7.15;1.50;;;;;;;-0.87;82.77;101948.47;5065322;28;20025;-69
2022/02/26 05:43:41;;;;;;;7.18;1.80;;;;;;;-0.83;82.78;101955.53;5065252;28;20461;-70
2022/02/26 05:46:06;;;;;;;3.50;1.30;;;;;;;-0.84;82.82;101958.88;5065021;28;20117;-72
2022/02/26 05:48:32;;;;;;;4.90;1.67;;;;;;;-0.90;82.84;101955.94;5065235;28;20032;-66
2022/02/26 05:50:57;;;;;;;4.22;1.02;;;;;;;-0.88;82.63;101962.03;5046686;28;20041;-68
2022/02/26 05:53:23;;;;;;;2.40;1.65;;;;;;;-0.85;82.61;101968.97;5065175;28;20025;-67
2022/02/26 05:55:48;;;;;;;4.55;2.33;;;;;;;-0.85;82.20;101976.63;5064973;28;20496;-71
2022/02/26 05:58:14;;;;;;;2.40;1.17;;;;;;;-0.84;82.11;101981.81;5064946;28;20516;-70
2022/02/26 06:00:39;;;;;;;6.00;1.40;;;;;;;-0.83;82.15;101985.28;5047000;28;20401;-70
2022/02/26 06:03:04;;;;;;;2.63;1.30;;;;;;;-0.83;82.14;101991.22;5046799;28;20032;-70
2022/02/26 06:05:30;;;;;;;4.90;1.52;;;;;;;-0.82;82.25;101994.69;5064485;28;20044;-70
2022/02/26 06:07:55;;;;;;;4.50;1.08;;;;;;;-0.82;82.47;101987.03;5064789;28;20081;-70
2022/02/26 06:10:21;;;;;;;4.65;1.13;;;;;;;-0.76;82.54;101998.50;5064690;28;20024;-70
2022/02/26 06:12:46;;;;;;;5.43;1.17;;;;;;;-0.73;82.59;102002.03;5064668;28;20045;-71
2022/02/26 06:15:11;;;;;;;2.88;1.63;;;;;;;-0.72;82.55;102011.47;5064815;28;20016;-70
2022/02/26 06:17:37;;;;;;;6.45;1.88;;;;;;;-0.72;82.05;102016.56;5064630;28;20047;-70
2022/02/26 06:20:07;;;;;;;4.45;1.50;;;;;;;-0.76;82.05;102013.81;5064340;28;20092;-69
2022/02/26 06:22:32;;;;;;;5.40;1.35;;;;;;;-0.83;81.88;102010.78;5046556;28;20060;-76
2022/02/26 06:24:58;;;;;;;5.60;1.60;;;;;;;-0.82;82.14;102015.97;5064585;28;20032;-70
2022/02/26 06:27:23;;;;;;;2.17;1.10;;;;;;;-0.80;82.17;102021.16;5046495;28;20475;-66
2022/02/26 06:29:49;;;;;;;2.22;1.20;;;;;;;-0.67;81.82;102027.94;5064411;28;20088;-69
2022/02/26 06:32:14;;;;;;;3.75;1.38;;;;;;;-0.63;81.21;102028.25;5064339;28;20380;-70
2022/02/26 06:34:40;;;;;;;3.65;1.10;;;;;;;-0.60;80.38;102024.09;5046164;28;20088;-68
2022/02/26 06:37:05;;;;;;;2.85;1.10;;;;;;;-0.50;79.92;102041.78;5063739;28;20041;-70
2022/02/26 06:39:30;;;;;;;2.85;1.08;;;;;;;-0.49;80.60;102048.63;5064304;28;20160;-70
2022/02/26 06:41:56;;;;;;;4.38;1.77;;;;;;;-0.47;80.85;102046.19;5063737;28;20031;-71
2022/02/26 06:44:22;;;;;;;4.93;1.48;;;;;;;-0.44;80.74;102047.25;5046302;28;20041;-71
2022/02/26 06:46:48;;;;;;;6.47;1.35;;;;;;;-0.41;80.73;102051.66;5064314;28;20021;-69
2022/02/26 06:49:15;;;;;;;2.03;1.30;;;;;;;-0.42;81.01;102047.38;5064533;28;20082;-70
2022/02/26 06:51:40;;;;;;;6.72;1.70;;;;;;;-0.41;80.78;102049.13;5064069;28;20049;-71
2022/02/26 06:54:05;;;;;;;7.38;1.60;;;;;;;-0.40;80.49;102056.00;5064246;28;20028;-70
2022/02/26 06:56:32;;;;;;;3.25;1.63;;;;;;;-0.34;79.75;102058.94;5063364;28;20025;-70
2022/02/26 06:58:57;;;;;;;6.00;1.85;;;;;;;-0.31;79.53;102056.59;5064081;28;20100;-70
2022/02/26 07:01:23;;;;;;;6.32;1.45;;;;;;;-0.13;79.82;102063.63;5064126;28;20021;-71
2022/02/26 07:03:48;;;;;;;2.50;1.20;;;;;;;0.34;80.00;102069.00;5063877;28;20029;-71
2022/02/26 07:06:14;;;;;;;3.70;1.27;;;;;;;0.81;79.73;102053.84;5063643;28;20043;-70
2022/02/26 07:08:39;;;;;;;8.70;1.63;;;;;;;1.45;79.07;102070.25;5064224;28;20036;-72
2022/02/26 07:11:04;;;;;;;3.95;1.10;;;;;;;1.99;79.51;102054.41;5045986;28;20029;-74
2022/02/26 07:13:31;;;;;;;5.22;1.45;;;;;;;2.55;77.95;102076.91;5064018;28;20072;-73
2022/02/26 07:15:59;;;;;;;5.05;1.10;;;;;;;2.99;78.08;102076.56;5045767;28;20108;-71
2022/02/26 07:18:24;;;;;;;4.30;1.02;;;;;;;3.54;78.49;102070.66;5063797;28;20021;-72
2022/02/26 07:20:50;;;;;;;2.58;0.80;;;;;;;3.98;78.47;102077.78;5063402;28;20059;-72
2022/02/26 07:23:16;;;;;;;3.78;1.55;;;;;;;4.32;76.70;102092.19;5063883;28;20017;-72
2022/02/26 07:25:42;;;;;;;3.85;1.25;;;;;;;4.58;76.87;102089.88;5063517;28;20221;-72
2022/02/26 07:28:09;;;;;;;4.03;1.27;;;;;;;4.94;76.26;102086.25;5063698;28;20017;-71
2022/02/26 07:30:35;;;;;;;3.63;0.90;;;;;;;5.08;73.89;102103.94;5063646;28;20028;-71
2022/02/26 07:33:00;;;;;;;3.55;1.13;;;;;;;4.96;73.28;102110.38;5063707;28;20021;-71
2022/02/26 07:35:26;;;;;;;3.55;1.10;;;;;;;4.83;69.83;102110.63;5063139;28;20025;-71
2022/02/26 07:37:51;;;;;;;3.78;1.08;;;;;;;4.83;68.96;102113.22;5063595;28;20396;-71
2022/02/26 07:40:16;;;;;;;3.55;1.00;;;;;;;4.67;67.49;102117.69;5045396;28;20025;-71
2022/02/26 07:42:42;;;;;;;3.35;1.23;;;;;;;4.47;68.13;102125.41;5063464;28;20039;-71
2022/02/26 07:45:07;;;;;;;5.28;1.10;;;;;;;4.39;68.59;102125.88;5063587;28;20029;-72
2022/02/26 07:47:33;;;;;;;3.83;1.20;;;;;;;4.34;68.88;102123.13;5045525;28;20025;-71
2022/02/26 07:49:59;;;;;;;2.70;1.20;;;;;;;4.45;72.46;102134.78;5063506;28;20113;-73
2022/02/26 07:52:24;;;;;;;9.60;1.55;;;;;;;4.70;73.23;102138.41;5045055;28;20025;-71
2022/02/26 07:54:51;;;;;;;3.28;1.20;;;;;;;5.06;70.81;102157.94;5063427;28;20065;-71
2022/02/26 07:57:17;;;;;;;5.07;1.48;;;;;;;4.99;69.83;102144.75;5045213;28;20059;-70
2022/02/26 07:59:43;;;;;;;6.22;1.48;;;;;;;4.93;71.22;102141.13;5063469;28;20025;-70
2022/02/26 08:02:08;;;;;;;4.47;1.35;;;;;;;5.05;69.88;102139.88;5063325;28;20021;-71
2022/02/26 08:04:34;;;;;;;7.07;1.55;;;;;;;5.17;71.46;102154.97;5063394;28;20059;-70
2022/02/26 08:06:59;;;;;;;1.45;0.80;;;;;;;5.26;65.15;102169.91;5062933;28;20017;-71
2022/02/26 08:09:26;;;;;;;3.05;1.40;;;;;;;5.04;65.23;102161.28;5066859;28;20044;-71
2022/02/26 08:11:51;;;;;;;4.38;1.52;;;;;;;4.69;64.43;102146.06;5067273;28;20013;-71
2022/02/26 08:14:18;;;;;;;3.28;1.30;;;;;;;4.47;62.79;102160.56;5067137;28;20080;-70
2022/02/26 08:16:43;;;;;;;1.83;1.30;;;;;;;4.16;61.81;102178.03;5067039;28;20055;-70
2022/02/26 08:19:09;;;;;;;7.97;1.58;;;;;;;3.72;64.67;102188.81;5048992;28;20029;-70
2022/02/26 08:21:35;;;;;;;4.13;1.20;;;;;;;4.05;63.99;102192.94;5066708;28;20036;-70
2022/02/26 08:24:00;;;;;;;5.20;1.40;;;;;;;4.46;64.09;102185.38;5067004;28;20095;-70
2022/02/26 08:26:25;;;;;;;3.63;1.30;;;;;;;4.77;60.51;102170.47;5066626;28;20025;-70
2022/02/26 08:28:51;;;;;;;5.88;1.38;;;;;;;5.10;60.87;102195.00;5048868;28;20009;-70
2022/02/26 08:31:16;;;;;;;4.40;1.30;;;;;;;5.42;60.47;102200.66;5048816;28;20023;-70
2022/02/26 08:33:42;;;;;;;2.85;1.20;;;;;;;5.66;60.41;102199.03;5066739;28;20095;-70
2022/02/26 08:36:07;;;;;;;2.08;1.20;;;;;;;5.75;62.78;102191.66;5066525;28;20049;-71
2022/02/26 08:38:32;;;;;;;6.72;2.03;;;;;;;6.32;65.06;102202.50;5066740;28;20025;-71
2022/02/26 08:40:58;;;;;;;3.63;1.55;;;;;;;7.28;64.77;102222.28;5048706;28;20485;-71
2022/02/26 08:43:24;;;;;;;4.35;1.50;;;;;;;8.11;63.84;102223.25;5066790;28;20048;-72
2022/02/26 08:45:49;;;;;;;5.97;1.35;;;;;;;8.74;62.44;102218.22;5066554;28;20025;-71
2022/02/26 08:48:15;;;;;;;8.00;1.73;;;;;;;9.18;60.48;102222.88;5066636;28;20024;-70
2022/02/26 08:50:40;;;;;;;4.10;1.40;;;;;;;9.70;61.00;102231.06;5066105;28;20052;-70
2022/02/26 08:53:06;;;;;;;7.10;1.30;;;;;;;10.05;59.46;102212.88;5048579;28;20066;-71
2022/02/26 08:55:32;;;;;;;4.03;1.42;;;;;;;10.64;60.24;102234.06;5066402;28;20021;-72
2022/02/26 08:57:57;;;;;;;4.28;1.58;;;;;;;11.20;60.16;102242.09;5066332;28;20070;-71
2022/02/26 09:00:23;;;;;;;3.53;1.20;;;;;;;11.42;60.32;102245.09;5066345;28;20021;-72
2022/02/26 09:02:48;;;;;;;7.55;1.48;;;;;;;11.59;58.42;102242.78;5066509;28;20071;-71
2022/02/26 09:05:14;;;;;;;4.20;1.50;;;;;;;12.01;57.43;102246.91;5066324;28;20114;-69
2022/02/26 09:07:39;;;;;;;13.02;1.88;;;;;;;12.13;58.67;102248.88;5065963;28;20479;-70
2022/02/26 09:10:06;;;;;;;3.13;1.42;;;;;;;12.35;55.43;102254.38;5066166;28;20025;-69
2022/02/26 09:12:31;;;;;;;4.57;1.73;;;;;;;12.55;56.17;102253.78;5066092;28;20461;-71
2022/02/26 09:15:28;;;;;;;2.47;1.23;;;;;;;12.59;56.61;102258.16;5066168;28;20033;-72
2022/02/26 09:17:55;;;;;;;6.82;1.20;;;;;;;12.81;60.17;102263.63;5065891;28;20021;-70
2022/02/26 09:20:21;;;;;;;5.70;1.52;;;;;;;12.87;60.22;102261.13;5065196;28;20059;-70
2022/02/26 09:22:46;;;;;;;6.57;1.48;;;;;;;12.92;62.05;102270.72;5065692;28;20032;-70
2022/02/26 09:25:12;;;;;;;4.60;1.35;;;;;;;12.79;59.39;102269.69;5066049;28;20118;-70
2022/02/26 09:27:40;;;;;;;3.78;1.30;;;;;;;12.68;59.89;102282.59;5048153;28;20032;-72
2022/02/26 09:30:06;;;;;;;5.72;1.45;;;;;;;12.36;59.88;102269.13;5066116;28;20021;-71
2022/02/26 09:32:33;;;;;;;8.27;1.40;;;;;;;12.36;61.79;102271.75;5066576;28;20076;-71
2022/02/26 09:34:58;;;;;;;4.65;1.35;;;;;;;12.40;60.06;102275.28;5066032;28;20024;-71
2022/02/26 09:37:24;;;;;;;4.68;1.42;;;;;;;12.22;59.96;102281.97;5065471;28;20125;-71
2022/02/26 09:39:51;;;;;;;4.47;1.60;;;;;;;12.10;61.99;102277.47;5065794;28;20117;-73
2022/02/26 09:42:21;;;;;;;5.18;1.27;;;;;;;12.23;64.61;102282.84;5047847;28;20215;-70
2022/02/26 09:44:47;;;;;;;4.82;1.30;;;;;;;12.40;66.29;102280.47;5065802;28;20025;-70
2022/02/26 09:47:13;;;;;;;2.95;1.17;;;;;;;12.34;62.82;102278.69;5065422;28;20098;-71
2022/02/26 09:49:48;;;;;;;2.42;1.10;;;;;;;11.89;60.77;102262.34;5065103;28;20150;-69
2022/02/26 09:52:15;;;;;;;4.05;1.10;;;;;;;10.93;58.79;102285.75;5064825;28;20024;-69
2022/02/26 09:54:52;;;;;;;3.13;1.20;;;;;;;10.09;58.90;102300.38;5064868;28;20106;-70
2022/02/26 09:57:18;;;;;;;7.22;1.40;;;;;;;9.39;61.90;102303.78;5064759;28;20035;-70
2022/02/26 09:59:45;;;;;;;2.53;1.40;;;;;;;8.97;59.48;102293.13;5046058;28;20405;-69
2022/02/26 10:02:13;;;;;;;2.72;1.10;;;;;;;8.36;59.24;102308.53;5064265;28;20028;-69
2022/02/26 10:04:53;;;;;;;4.03;1.00;;;;;;;8.03;66.36;102316.16;5046701;28;20025;-71
2022/02/26 10:07:22;;;;;;;3.35;1.30;;;;;;;7.98;64.24;102321.97;5064239;28;20028;-69
2022/02/26 10:09:55;;;;;;;3.42;1.08;;;;;;;7.90;61.51;102329.47;5064444;28;20013;-70
2022/02/26 10:12:33;;;;;;;5.70;1.10;;;;;;;7.62;58.72;102328.56;5064425;28;20029;-70
2022/02/26 10:15:01;;;;;;;5.85;1.42;;;;;;;7.57;59.03;102323.22;5064644;28;20021;-69
2022/02/26 10:17:30;;;;;;;9.07;1.50;;;;;;;7.80;58.11;102331.75;5064288;28;20029;-70
2022/02/26 10:20:00;;;;;;;3.50;1.30;;;;;;;8.27;63.94;102328.13;5064763;28;20028;-72
2022/02/26 10:22:29;;;;;;;4.63;1.35;;;;;;;9.16;62.54;102322.16;5064021;28;20031;-71
2022/02/26 10:24:54;;;;;;;4.40;1.17;;;;;;;9.54;57.78;102318.84;5064236;28;20076;-70
2022/02/26 10:27:25;;;;;;;3.00;0.93;;;;;;;9.63;54.38;102324.28;5063928;28;20047;-70
2022/02/26 10:29:52;;;;;;;4.07;1.60;;;;;;;9.23;53.43;102339.66;5064054;28;20016;-70
2022/02/26 10:32:20;;;;;;;7.35;1.73;;;;;;;9.21;55.26;102336.13;5063444;28;20032;-70
2022/02/26 10:34:46;;;;;;;3.20;1.20;;;;;;;8.92;53.76;102329.25;5064066;28;20021;-70
2022/02/26 10:37:14;;;;;;;3.95;1.20;;;;;;;8.45;53.72;102341.59;5045553;28;20082;-70
2022/02/26 10:39:40;;;;;;;2.45;1.05;;;;;;;7.72;54.14;102347.81;5063763;28;20013;-70
2022/02/26 10:42:07;;;;;;;5.18;1.95;;;;;;;7.17;56.96;102348.50;5063833;28;20021;-70
2022/02/26 10:44:33;;;;;;;4.38;1.27;;;;;;;6.98;59.50;102349.50;5064103;28;20021;-69
2022/02/26 10:47:19;;;;;;;2.15;1.00;;;;;;;7.23;61.84;102348.72;5045484;28;20094;-69
2022/02/26 10:49:48;;;;;;;2.72;1.20;;;;;;;7.78;62.76;102359.25;5062939;28;20039;-69
2022/02/26 10:52:15;;;;;;;2.75;1.25;;;;;;;8.55;63.13;102341.97;5061807;28;20051;-70
2022/02/26 10:55:06;;;;;;;4.95;1.80;;;;;;;9.02;54.81;102355.44;5063729;28;20070;-71
2022/02/26 10:57:32;;;;;;;7.82;1.48;;;;;;;9.07;58.90;102350.38;5063652;28;20063;-71
2022/02/26 10:59:58;;;;;;;4.95;1.48;;;;;;;9.52;58.71;102336.09;5063596;28;20021;-72
2022/02/26 11:02:25;;;;;;;6.80;1.40;;;;;;;10.43;58.07;102357.41;5063292;28;20035;-69
2022/02/26 11:04:53;;;;;;;6.03;1.52;;;;;;;11.21;56.53;102350.44;5063605;28;20021;-70
2022/02/26 11:07:19;;;;;;;4.38;1.50;;;;;;;11.76;53.16;102365.34;5045182;28;20017;-71
2022/02/26 11:09:47;;;;;;;4.78;1.42;;;;;;;12.04;52.87;102360.63;5063402;28;20013;-70
2022/02/26 11:12:17;;;;;;;4.82;1.58;;;;;;;12.51;51.87;102372.69;5058090;28;20354;-72
2022/02/26 11:15:00;;;;;;;4.18;2.00;;;;;;;12.86;50.98;102371.44;5045571;28;20021;-70
2022/02/26 11:17:25;;;;;;;;;;;;;;;13.11;51.67;102368.28;5063581;28;20036;-72
2022/02/26 11:19:56;;;;;;;3.78;1.85;;;;;;;13.77;51.20;102376.88;5045441;28;19916;-69
2022/02/26 11:22:24;;;;;;;6.32;1.75;;;;;;;14.33;49.73;102364.31;5062886;28;20021;-70
2022/02/26 11:24:50;;;;;;;4.00;1.25;;;;;;;14.72;45.18;102359.31;5063302;28;20035;-69
2022/02/26 11:27:16;;;;;;;4.05;1.42;;;;;;;14.63;43.98;102360.16;5063580;28;20377;-71